createdAt,value
2019-05-12T00:01:51.565Z,11.36
2019-05-12T00:04:23.297Z,11.37
2019-05-12T00:06:55.033Z,11.37
2019-05-12T00:09:28.289Z,11.36
2019-05-12T00:12:00.084Z,11.35
2019-05-12T00:14:31.921Z,11.36
2019-05-12T00:17:03.647Z,11.33
2019-05-12T00:19:37.656Z,11.35
2019-05-12T00:22:11.279Z,11.34
2019-05-12T00:24:47.767Z,11.31
2019-05-12T00:27:23.258Z,11.23
2019-05-12T00:29:54.994Z,11.17
2019-05-12T00:32:28.224Z,11.10
2019-05-12T00:35:00.045Z,11.04
2019-05-12T00:37:31.873Z,11.02
2019-05-12T00:40:04.096Z,10.93
2019-05-12T00:42:38.054Z,10.91
2019-05-12T00:45:09.798Z,10.83
2019-05-12T00:47:41.629Z,10.76
2019-05-12T00:50:13.756Z,10.70
2019-05-12T00:52:45.514Z,10.68
2019-05-12T00:55:18.396Z,10.67
2019-05-12T00:57:50.251Z,10.63
2019-05-12T01:00:22.940Z,10.61
2019-05-12T01:02:54.669Z,10.57
2019-05-12T01:05:26.399Z,10.53
2019-05-12T01:07:58.539Z,10.45
2019-05-12T01:10:31.437Z,10.41
2019-05-12T01:13:04.764Z,10.35
2019-05-12T01:15:37.786Z,10.29
2019-05-12T01:18:09.914Z,10.18
2019-05-12T01:20:41.854Z,10.07
2019-05-12T01:23:14.823Z,9.93
2019-05-12T01:25:50.598Z,9.81
2019-05-12T01:28:22.458Z,9.73
2019-05-12T01:30:58.063Z,9.61
2019-05-12T01:33:29.250Z,9.54
2019-05-12T01:36:02.225Z,9.45
2019-05-12T01:38:34.040Z,9.40
2019-05-12T01:41:05.767Z,9.30
2019-05-12T01:43:38.230Z,9.20
2019-05-12T01:46:11.231Z,9.14
2019-05-12T01:48:42.872Z,9.01
2019-05-12T01:51:17.879Z,8.88
2019-05-12T01:53:49.772Z,8.68
2019-05-12T01:56:21.494Z,8.57
2019-05-12T01:58:53.324Z,8.43
2019-05-12T02:01:25.043Z,8.33
2019-05-12T02:03:58.545Z,8.26
2019-05-12T02:06:30.102Z,8.20
2019-05-12T02:09:03.471Z,8.16
2019-05-12T02:11:35.153Z,8.13
2019-05-12T02:14:09.242Z,8.08
2019-05-12T02:16:40.837Z,8.04
2019-05-12T02:19:12.577Z,8.03
2019-05-12T02:21:44.299Z,8.03
2019-05-12T02:24:24.272Z,8.03
2019-05-12T02:26:49.442Z,8.00
2019-05-12T02:29:21.162Z,7.98
2019-05-12T02:31:52.891Z,8.00
2019-05-12T02:34:25.580Z,7.96
2019-05-12T02:36:57.310Z,7.93
2019-05-12T02:39:29.147Z,7.87
2019-05-12T02:42:00.869Z,7.87
2019-05-12T02:44:34.652Z,7.85
2019-05-12T02:47:06.132Z,7.79
2019-05-12T02:49:37.814Z,7.72
2019-05-12T02:52:10.000Z,7.68
2019-05-12T02:54:51.895Z,7.62
2019-05-12T02:57:17.451Z,7.57
2019-05-12T02:59:50.220Z,7.56
2019-05-12T03:02:24.706Z,7.57
2019-05-12T03:04:59.555Z,7.55
2019-05-12T03:07:34.577Z,7.54
2019-05-12T03:10:14.618Z,7.54
2019-05-12T03:12:46.510Z,7.53
2019-05-12T03:15:18.352Z,7.51
2019-05-12T03:17:50.079Z,7.45
2019-05-12T03:20:24.221Z,7.39
2019-05-12T03:22:55.529Z,7.42
2019-05-12T03:25:30.127Z,7.38
2019-05-12T03:28:00.745Z,7.35
2019-05-12T03:30:38.191Z,7.37
2019-05-12T03:33:09.138Z,7.34
2019-05-12T03:35:43.469Z,7.29
2019-05-12T03:38:15.001Z,7.28
2019-05-12T03:40:47.010Z,7.25
2019-05-12T03:43:18.750Z,7.22
2019-05-12T03:45:50.489Z,7.18
2019-05-12T03:48:25.077Z,7.16
2019-05-12T03:50:55.562Z,7.15
2019-05-12T03:53:27.298Z,7.15
2019-05-12T03:55:59.029Z,7.16
2019-05-12T03:58:30.850Z,7.12
2019-05-12T04:01:04.597Z,7.11
2019-05-12T04:03:35.895Z,7.11
2019-05-12T04:06:07.626Z,7.12
2019-05-12T04:08:39.915Z,7.10
2019-05-12T04:11:14.497Z,7.11
2019-05-12T04:13:45.454Z,7.11
2019-05-12T04:16:19.990Z,7.11
2019-05-12T04:18:54.927Z,7.12
2019-05-12T04:21:25.041Z,7.11
2019-05-12T04:23:56.682Z,7.12
2019-05-12T04:26:30.049Z,7.13
2019-05-12T04:29:04.839Z,7.15
2019-05-12T04:31:37.170Z,7.15
2019-05-12T04:34:10.075Z,7.17
2019-05-12T04:36:44.873Z,7.18
2019-05-12T04:39:15.585Z,7.19
2019-05-12T04:41:48.163Z,7.21
2019-05-12T04:44:20.005Z,7.22
2019-05-12T04:46:55.151Z,7.19
2019-05-12T04:49:25.346Z,7.16
2019-05-12T04:51:57.979Z,7.18
2019-05-12T04:54:30.726Z,7.22
2019-05-12T04:57:04.149Z,7.20
2019-05-12T04:59:35.799Z,7.19
2019-05-12T05:02:07.513Z,7.18
2019-05-12T05:04:39.251Z,7.14
2019-05-12T05:07:10.984Z,7.13
2019-05-12T05:09:44.290Z,7.12
2019-05-12T05:12:16.325Z,7.11
2019-05-12T05:14:48.163Z,7.12
2019-05-12T05:17:24.574Z,7.10
2019-05-12T05:19:58.031Z,7.09
2019-05-12T05:22:29.852Z,7.06
2019-05-12T05:25:04.113Z,7.07
2019-05-12T05:27:34.925Z,7.06
2019-05-12T05:30:10.933Z,7.07
2019-05-12T05:32:44.488Z,7.07
2019-05-12T05:35:15.994Z,7.08
2019-05-12T05:37:47.832Z,7.07
2019-05-12T05:40:19.930Z,7.07
2019-05-12T05:42:54.309Z,7.10
2019-05-12T05:45:26.593Z,7.12
2019-05-12T05:47:59.549Z,7.12
2019-05-12T05:50:33.870Z,7.15
2019-05-12T05:53:12.429Z,7.17
2019-05-12T05:55:39.031Z,7.20
2019-05-12T05:58:10.759Z,7.21
2019-05-12T06:00:43.614Z,7.22
2019-05-12T06:03:22.909Z,7.25
2019-05-12T06:05:48.781Z,7.27
2019-05-12T06:33:31.319Z,7.56
2019-05-12T06:35:59.794Z,7.56
2019-05-12T12:59:56.238Z,11.54
2019-05-12T13:02:28.231Z,11.57
2019-05-12T13:04:59.791Z,11.46
2019-05-12T13:07:33.436Z,11.30
2019-05-12T13:10:09.508Z,11.27
2019-05-12T13:12:40.381Z,10.94
2019-05-12T13:15:14.588Z,10.80
2019-05-12T13:17:51.019Z,10.54
2019-05-12T13:20:23.851Z,10.39
2019-05-12T13:22:58.059Z,10.18
2019-05-12T13:25:29.934Z,10.12
2019-05-12T13:28:10.068Z,10.04
2019-05-12T13:30:45.545Z,9.91
2019-05-12T13:33:14.844Z,9.76
2019-05-12T13:35:50.326Z,9.81
2019-05-12T13:38:19.228Z,9.84
2019-05-12T13:40:51.078Z,9.84
2019-05-12T13:43:23.715Z,9.94
2019-05-12T13:45:55.767Z,10.00
2019-05-12T13:48:29.086Z,10.05
2019-05-12T13:51:12.132Z,10.14
2019-05-12T13:53:40.503Z,10.14
2019-05-12T13:56:13.699Z,10.21
2019-05-12T13:58:47.260Z,10.34
2019-05-12T14:01:21.049Z,10.39
2019-05-12T14:03:53.571Z,10.56
2019-05-12T14:06:31.842Z,10.82
2019-05-12T14:09:01.112Z,11.16
2019-05-12T14:11:34.599Z,11.30
2019-05-12T14:14:11.523Z,11.45
2019-05-12T14:16:44.536Z,11.50
2019-05-12T14:19:17.750Z,11.73
2019-05-12T14:21:54.137Z,11.68
2019-05-12T14:24:26.323Z,11.83
2019-05-12T14:26:58.008Z,11.94
2019-05-12T14:29:30.749Z,11.92
2019-05-12T14:32:05.319Z,11.96
2019-05-12T14:34:36.545Z,12.15
2019-05-12T14:37:13.621Z,12.20
2019-05-12T14:39:50.130Z,12.22
2019-05-12T14:42:19.518Z,11.77
2019-05-12T14:44:54.083Z,11.98
2019-05-12T14:47:30.093Z,11.83
2019-05-12T14:50:03.783Z,11.90
2019-05-12T14:52:34.547Z,11.98
2019-05-12T14:55:08.710Z,12.17
2019-05-12T14:57:42.175Z,12.44
2019-05-12T15:00:21.890Z,12.51
2019-05-12T15:02:54.047Z,12.69
2019-05-12T15:05:27.707Z,12.91
2019-05-12T15:08:00.889Z,13.02
2019-05-12T15:10:36.372Z,12.95
2019-05-12T15:13:09.940Z,13.11
2019-05-12T15:15:43.941Z,12.96
2019-05-12T15:18:16.780Z,13.34
2019-05-12T15:20:51.355Z,13.19
2019-05-12T15:23:32.652Z,12.96
2019-05-12T15:25:58.063Z,12.87
2019-05-12T15:28:33.800Z,12.77
2019-05-12T15:31:05.872Z,12.89
2019-05-12T15:33:37.618Z,12.73
2019-05-12T15:36:09.758Z,12.53
2019-05-12T15:38:43.734Z,12.30
2019-05-12T15:41:20.061Z,12.40
2019-05-12T15:43:53.662Z,12.30
2019-05-12T15:46:26.517Z,12.34
2019-05-12T15:48:58.381Z,12.30
2019-05-12T15:51:30.336Z,12.22
2019-05-12T15:54:06.247Z,12.33
2019-05-12T15:56:35.468Z,12.48
2019-05-12T15:59:09.924Z,12.24
2019-05-12T16:01:43.809Z,12.28
2019-05-12T16:04:15.462Z,12.29
2019-05-12T16:06:53.176Z,12.30
2019-05-12T16:09:23.792Z,12.18
2019-05-12T16:11:55.273Z,12.04
2019-05-12T16:14:33.937Z,12.11
2019-05-12T16:17:06.296Z,12.13
2019-05-12T16:19:37.242Z,12.09
2019-05-12T16:22:08.990Z,12.09
2019-05-12T16:24:43.525Z,12.09
2019-05-12T16:27:14.570Z,11.96
2019-05-12T16:29:49.934Z,11.86
2019-05-12T16:32:27.266Z,11.77
2019-05-12T16:34:57.657Z,11.70
2019-05-12T16:37:31.099Z,11.69
2019-05-12T16:40:04.470Z,11.75
2019-05-12T16:42:40.800Z,11.76
2019-05-12T16:45:10.703Z,11.77
2019-05-12T16:47:44.724Z,11.69
2019-05-12T16:50:24.475Z,11.63
2019-05-12T16:52:49.965Z,11.56
2019-05-12T16:55:23.647Z,11.43
2019-05-12T16:57:56.264Z,11.46
2019-05-12T17:00:34.022Z,11.43
2019-05-12T17:03:09.003Z,11.40
2019-05-12T17:05:43.962Z,11.34
2019-05-12T17:08:16.721Z,11.29
2019-05-12T17:11:01.059Z,11.22
2019-05-12T17:13:34.019Z,11.21
2019-05-12T17:16:13.875Z,11.12
2019-05-12T17:18:48.387Z,11.04
2019-05-12T17:21:24.621Z,10.98
2019-05-12T17:23:57.459Z,10.91
2019-05-12T17:26:29.488Z,10.85
2019-05-12T17:29:10.987Z,10.85
2019-05-12T17:31:45.782Z,10.80
2019-05-12T17:34:19.223Z,10.71
2019-05-12T17:36:58.511Z,10.65
2019-05-12T17:39:29.309Z,10.58
2019-05-12T17:42:03.481Z,10.54
2019-05-12T17:44:38.894Z,10.46
2019-05-12T17:47:20.730Z,10.37
2019-05-12T17:49:45.755Z,10.29
2019-05-12T17:52:19.441Z,10.16
2019-05-12T17:54:57.850Z,10.07
2019-05-12T17:57:27.703Z,10.02
2019-05-12T18:00:08.551Z,9.99
2019-05-12T18:02:43.637Z,9.91
2019-05-12T18:05:16.033Z,9.81
2019-05-12T18:07:50.854Z,9.70
2019-05-12T18:10:23.863Z,9.54
2019-05-12T18:13:00.411Z,9.54
2019-05-12T18:15:37.832Z,9.52
2019-05-12T18:18:08.577Z,9.46
2019-05-12T18:20:43.942Z,9.42
2019-05-12T18:23:14.235Z,9.36
2019-05-12T18:25:48.224Z,9.37
2019-05-12T18:28:21.644Z,9.33
2019-05-12T18:30:55.887Z,9.29
2019-05-12T18:33:33.269Z,9.21
2019-05-12T18:36:01.064Z,9.16
2019-05-12T18:38:38.752Z,9.08
2019-05-12T18:41:06.975Z,9.01
2019-05-12T18:43:40.169Z,8.96
2019-05-12T18:46:13.995Z,8.92
2019-05-12T18:48:56.669Z,8.84
2019-05-12T18:51:26.446Z,8.79
2019-05-12T18:54:03.657Z,8.74
2019-05-12T18:56:36.718Z,8.70
2019-05-12T18:59:11.763Z,8.66
2019-05-12T19:01:44.750Z,8.63
2019-05-12T19:04:16.400Z,8.58
2019-05-12T19:06:49.009Z,8.50
2019-05-12T19:09:23.784Z,8.44
2019-05-12T19:11:58.322Z,8.39
2019-05-12T19:14:38.654Z,8.34
2019-05-12T19:17:07.401Z,8.31
2019-05-12T19:19:40.546Z,8.31
2019-05-12T19:22:14.142Z,8.30
2019-05-12T19:24:50.080Z,8.31
2019-05-12T19:27:24.080Z,8.27
2019-05-12T19:29:56.845Z,8.21
2019-05-12T19:32:29.451Z,8.11
2019-05-12T19:35:03.708Z,8.09
2019-05-12T19:37:36.398Z,7.99
2019-05-12T19:40:11.883Z,7.97
2019-05-12T19:42:46.328Z,7.96
2019-05-12T19:45:21.605Z,7.96
2019-05-12T19:47:53.609Z,7.92
2019-05-12T19:50:25.143Z,7.96
2019-05-12T19:52:56.894Z,7.94
2019-05-12T19:55:29.447Z,7.91
2019-05-12T19:58:10.957Z,7.90
2019-05-12T20:00:39.842Z,7.87
2019-05-12T20:03:13.677Z,7.89
2019-05-12T20:05:44.902Z,7.88
2019-05-12T20:08:16.867Z,7.83
2019-05-12T20:10:49.759Z,7.84
2019-05-12T20:13:23.915Z,7.85
2019-05-12T20:16:02.012Z,7.83
2019-05-12T20:18:49.147Z,7.81
2019-05-12T20:21:20.409Z,7.83
2019-05-12T20:24:03.861Z,7.82
2019-05-12T20:26:45.965Z,7.84
2019-05-12T20:29:24.512Z,7.78
2019-05-12T20:32:04.829Z,7.70
2019-05-12T20:34:48.072Z,7.77
2019-05-12T20:37:22.935Z,7.82
2019-05-12T20:40:04.382Z,7.82
2019-05-12T20:42:42.294Z,7.85
2019-05-12T20:45:13.729Z,7.91
2019-05-12T20:47:47.675Z,7.94
2019-05-12T20:50:32.769Z,7.95
2019-05-12T20:53:05.264Z,7.95
2019-05-12T20:55:41.524Z,7.96
2019-05-12T20:58:15.644Z,7.96
2019-05-12T21:00:50.107Z,7.96
2019-05-12T21:03:28.498Z,7.99
2019-05-12T21:06:02.207Z,7.98
2019-05-12T21:08:38.447Z,7.96
2019-05-12T21:11:15.186Z,7.95
2019-05-12T21:13:47.274Z,7.95
2019-05-12T21:16:30.854Z,7.93
2019-05-12T21:19:07.472Z,7.90
2019-05-12T21:21:38.220Z,7.88
2019-05-12T21:24:20.937Z,7.88
2019-05-12T21:27:03.690Z,7.81
2019-05-12T21:29:33.804Z,7.79
2019-05-12T21:32:12.304Z,7.81
2019-05-12T21:34:43.553Z,7.77
2019-05-12T21:37:14.913Z,7.79
2019-05-12T21:39:50.960Z,7.77
2019-05-12T21:42:20.525Z,7.78
2019-05-12T21:44:53.287Z,7.75
2019-05-12T21:47:26.648Z,7.68
2019-05-12T21:49:58.359Z,7.70
2019-05-12T21:52:37.142Z,7.71
2019-05-12T21:55:23.153Z,7.74
2019-05-12T21:58:01.471Z,7.80
2019-05-12T22:03:27.523Z,7.91
2019-05-12T22:06:06.871Z,7.99
2019-05-12T22:08:34.232Z,8.05
2019-05-12T22:11:11.513Z,8.11
2019-05-12T22:13:46.778Z,8.15
2019-05-12T22:16:15.172Z,8.19
2019-05-12T22:18:54.665Z,8.19
2019-05-12T22:21:23.852Z,8.18
2019-05-12T22:23:56.359Z,8.20
2019-05-12T22:26:30.761Z,8.22
2019-05-12T22:29:04.155Z,8.18
2019-05-12T22:31:38.553Z,8.15
2019-05-12T22:34:08.856Z,8.13
2019-05-12T22:36:45.232Z,8.13
2019-05-12T22:39:14.808Z,8.11
2019-05-12T22:41:46.558Z,8.10
2019-05-12T22:44:22.014Z,8.10
2019-05-12T22:46:54.093Z,8.09
2019-05-12T22:49:25.852Z,8.07
2019-05-12T22:52:02.692Z,8.08
2019-05-12T22:54:33.669Z,8.05
2019-05-12T22:57:06.686Z,8.03
2019-05-12T22:59:40.347Z,7.99
2019-05-12T23:02:16.037Z,7.97
2019-05-12T23:04:45.273Z,7.96
2019-05-12T23:07:19.093Z,7.93
2019-05-12T23:09:50.338Z,7.91
2019-05-12T23:12:23.666Z,7.90
2019-05-12T23:15:03.049Z,7.89
2019-05-12T23:17:29.680Z,7.87
2019-05-12T23:20:01.374Z,7.86
2019-05-12T23:22:35.099Z,7.84
2019-05-12T23:25:11.381Z,7.80
2019-05-12T23:27:44.229Z,7.80
2019-05-12T23:30:16.357Z,7.80
2019-05-12T23:32:51.463Z,7.79
2019-05-12T23:35:21.724Z,7.78
2019-05-12T23:37:53.714Z,7.76
2019-05-12T23:40:25.569Z,7.72
2019-05-12T23:42:57.321Z,7.69
2019-05-12T23:45:29.049Z,7.66
2019-05-12T23:48:03.458Z,7.61
2019-05-12T23:50:34.417Z,7.55
2019-05-12T23:53:06.256Z,7.56
2019-05-12T23:55:37.980Z,7.54
2019-05-12T23:58:09.731Z,7.53
